sensor_id;sensor_type;location;lat;lon;timestamp;temperature;humidity
4354;DHT22;11018;51.258;6.806;2022-11-15T00:00:48;11.20;77.40
4354;DHT22;11018;51.258;6.806;2022-11-15T00:03:20;11.20;78.70
4354;DHT22;11018;51.258;6.806;2022-11-15T00:05:46;11.30;78.30
4354;DHT22;11018;51.258;6.806;2022-11-15T00:08:12;11.30;78.20
4354;DHT22;11018;51.258;6.806;2022-11-15T00:10:38;11.30;79.20
4354;DHT22;11018;51.258;6.806;2022-11-15T00:13:07;11.40;79.40
4354;DHT22;11018;51.258;6.806;2022-11-15T00:15:40;11.40;80.00
4354;DHT22;11018;51.258;6.806;2022-11-15T00:18:10;11.50;79.00
4354;DHT22;11018;51.258;6.806;2022-11-15T00:20:37;11.50;79.30
4354;DHT22;11018;51.258;6.806;2022-11-15T00:23:06;11.50;80.20
4354;DHT22;11018;51.258;6.806;2022-11-15T00:25:32;11.50;81.40
4354;DHT22;11018;51.258;6.806;2022-11-15T00:27:59;11.40;81.60
4354;DHT22;11018;51.258;6.806;2022-11-15T00:30:25;11.50;82.30
4354;DHT22;11018;51.258;6.806;2022-11-15T00:32:51;11.60;81.00
4354;DHT22;11018;51.258;6.806;2022-11-15T00:35:17;11.60;80.30
4354;DHT22;11018;51.258;6.806;2022-11-15T00:37:43;11.60;80.90
4354;DHT22;11018;51.258;6.806;2022-11-15T00:40:09;11.70;81.40
4354;DHT22;11018;51.258;6.806;2022-11-15T00:42:35;11.70;80.90
4354;DHT22;11018;51.258;6.806;2022-11-15T00:45:00;11.80;80.90
4354;DHT22;11018;51.258;6.806;2022-11-15T00:47:26;11.80;80.10
4354;DHT22;11018;51.258;6.806;2022-11-15T00:49:51;11.90;79.70
4354;DHT22;11018;51.258;6.806;2022-11-15T00:52:17;11.90;80.60
4354;DHT22;11018;51.258;6.806;2022-11-15T00:54:42;11.80;81.40
4354;DHT22;11018;51.258;6.806;2022-11-15T00:57:08;11.90;82.40
4354;DHT22;11018;51.258;6.806;2022-11-15T00:59:34;11.80;82.10
4354;DHT22;11018;51.258;6.806;2022-11-15T01:01:59;11.80;82.30
4354;DHT22;11018;51.258;6.806;2022-11-15T01:04:25;11.90;82.20
4354;DHT22;11018;51.258;6.806;2022-11-15T01:06:50;11.80;83.10
4354;DHT22;11018;51.258;6.806;2022-11-15T01:09:16;11.90;83.90
4354;DHT22;11018;51.258;6.806;2022-11-15T01:11:41;11.90;83.70
4354;DHT22;11018;51.258;6.806;2022-11-15T01:14:07;11.90;84.40
4354;DHT22;11018;51.258;6.806;2022-11-15T01:16:33;11.90;84.00
4354;DHT22;11018;51.258;6.806;2022-11-15T01:18:59;12.00;83.60
4354;DHT22;11018;51.258;6.806;2022-11-15T01:21:25;12.00;83.00
4354;DHT22;11018;51.258;6.806;2022-11-15T01:23:54;12.00;83.30
4354;DHT22;11018;51.258;6.806;2022-11-15T01:26:20;12.00;84.10
4354;DHT22;11018;51.258;6.806;2022-11-15T01:28:46;11.90;84.90
4354;DHT22;11018;51.258;6.806;2022-11-15T01:31:14;11.90;85.60
4354;DHT22;11018;51.258;6.806;2022-11-15T01:33:40;11.90;86.30
4354;DHT22;11018;51.258;6.806;2022-11-15T01:36:09;12.00;85.90
4354;DHT22;11018;51.258;6.806;2022-11-15T01:38:35;12.00;86.10
4354;DHT22;11018;51.258;6.806;2022-11-15T01:41:00;12.00;85.80
4354;DHT22;11018;51.258;6.806;2022-11-15T01:43:34;12.00;85.10
4354;DHT22;11018;51.258;6.806;2022-11-15T01:46:04;12.10;85.40
4354;DHT22;11018;51.258;6.806;2022-11-15T01:48:33;12.00;86.30
4354;DHT22;11018;51.258;6.806;2022-11-15T01:51:06;12.00;86.40
4354;DHT22;11018;51.258;6.806;2022-11-15T01:53:34;12.00;87.50
4354;DHT22;11018;51.258;6.806;2022-11-15T01:56:07;12.00;87.90
4354;DHT22;11018;51.258;6.806;2022-11-15T01:58:34;12.10;87.60
4354;DHT22;11018;51.258;6.806;2022-11-15T02:01:00;12.10;86.10
4354;DHT22;11018;51.258;6.806;2022-11-15T02:03:35;12.10;86.00
4354;DHT22;11018;51.258;6.806;2022-11-15T02:06:03;12.10;86.80
4354;DHT22;11018;51.258;6.806;2022-11-15T02:08:30;12.10;86.10
4354;DHT22;11018;51.258;6.806;2022-11-15T02:10:55;12.20;86.40
4354;DHT22;11018;51.258;6.806;2022-11-15T02:13:21;12.20;85.00
4354;DHT22;11018;51.258;6.806;2022-11-15T02:16:11;12.20;86.80
4354;DHT22;11018;51.258;6.806;2022-11-15T02:18:44;12.20;86.00
4354;DHT22;11018;51.258;6.806;2022-11-15T02:32:35;12.20;85.90
4354;DHT22;11018;51.258;6.806;2022-11-15T02:43:11;12.40;85.60
4354;DHT22;11018;51.258;6.806;2022-11-15T02:46:05;12.40;86.20
4354;DHT22;11018;51.258;6.806;2022-11-15T02:48:33;12.30;86.70
4354;DHT22;11018;51.258;6.806;2022-11-15T02:51:00;12.20;88.10
4354;DHT22;11018;51.258;6.806;2022-11-15T02:53:26;12.20;88.70
4354;DHT22;11018;51.258;6.806;2022-11-15T02:55:53;12.30;88.10
4354;DHT22;11018;51.258;6.806;2022-11-15T03:01:54;12.30;88.00
4354;DHT22;11018;51.258;6.806;2022-11-15T03:10:05;12.40;87.10
4354;DHT22;11018;51.258;6.806;2022-11-15T03:12:59;12.40;88.10
4354;DHT22;11018;51.258;6.806;2022-11-15T03:15:35;12.50;87.80
4354;DHT22;11018;51.258;6.806;2022-11-15T03:18:05;12.40;88.50
4354;DHT22;11018;51.258;6.806;2022-11-15T03:20:34;12.60;87.00
4354;DHT22;11018;51.258;6.806;2022-11-15T03:23:04;12.50;87.60
4354;DHT22;11018;51.258;6.806;2022-11-15T03:25:32;12.50;88.50
4354;DHT22;11018;51.258;6.806;2022-11-15T03:28:02;12.50;87.80
4354;DHT22;11018;51.258;6.806;2022-11-15T03:30:31;12.60;88.20
4354;DHT22;11018;51.258;6.806;2022-11-15T03:32:58;12.70;86.80
4354;DHT22;11018;51.258;6.806;2022-11-15T03:35:27;12.80;85.20
4354;DHT22;11018;51.258;6.806;2022-11-15T03:38:05;12.80;83.40
4354;DHT22;11018;51.258;6.806;2022-11-15T03:40:40;12.70;85.00
4354;DHT22;11018;51.258;6.806;2022-11-15T03:43:25;12.70;85.00
4354;DHT22;11018;51.258;6.806;2022-11-15T03:45:59;12.80;84.10
4354;DHT22;11018;51.258;6.806;2022-11-15T03:48:30;12.70;85.10
4354;DHT22;11018;51.258;6.806;2022-11-15T03:50:59;12.70;85.60
4354;DHT22;11018;51.258;6.806;2022-11-15T03:53:24;12.60;86.90
4354;DHT22;11018;51.258;6.806;2022-11-15T03:55:50;12.70;86.50
4354;DHT22;11018;51.258;6.806;2022-11-15T03:58:15;12.60;87.20
4354;DHT22;11018;51.258;6.806;2022-11-15T04:00:41;12.70;87.10
4354;DHT22;11018;51.258;6.806;2022-11-15T04:03:07;12.60;87.90
4354;DHT22;11018;51.258;6.806;2022-11-15T04:05:33;12.60;88.10
4354;DHT22;11018;51.258;6.806;2022-11-15T04:07:58;12.60;87.10
4354;DHT22;11018;51.258;6.806;2022-11-15T04:10:24;12.70;86.90
4354;DHT22;11018;51.258;6.806;2022-11-15T04:12:50;12.60;87.30
4354;DHT22;11018;51.258;6.806;2022-11-15T04:15:17;12.70;86.60
4354;DHT22;11018;51.258;6.806;2022-11-15T04:17:49;12.70;87.40
4354;DHT22;11018;51.258;6.806;2022-11-15T04:23:00;12.70;86.80
4354;DHT22;11018;51.258;6.806;2022-11-15T04:25:45;12.80;86.20
4354;DHT22;11018;51.258;6.806;2022-11-15T04:28:11;12.80;85.90
4354;DHT22;11018;51.258;6.806;2022-11-15T04:30:37;12.70;87.40
4354;DHT22;11018;51.258;6.806;2022-11-15T04:33:03;12.70;89.00
4354;DHT22;11018;51.258;6.806;2022-11-15T04:35:29;12.80;86.60
4354;DHT22;11018;51.258;6.806;2022-11-15T04:37:56;12.90;86.20
4354;DHT22;11018;51.258;6.806;2022-11-15T04:40:21;12.90;84.50
4354;DHT22;11018;51.258;6.806;2022-11-15T04:42:47;12.80;86.20
4354;DHT22;11018;51.258;6.806;2022-11-15T04:45:13;12.80;87.60
4354;DHT22;11018;51.258;6.806;2022-11-15T04:47:38;12.80;88.50
4354;DHT22;11018;51.258;6.806;2022-11-15T04:50:04;12.80;90.60
4354;DHT22;11018;51.258;6.806;2022-11-15T04:52:30;12.70;92.90
4354;DHT22;11018;51.258;6.806;2022-11-15T04:54:55;12.70;94.20
4354;DHT22;11018;51.258;6.806;2022-11-15T04:57:21;12.70;94.50
4354;DHT22;11018;51.258;6.806;2022-11-15T04:59:46;12.70;94.90
4354;DHT22;11018;51.258;6.806;2022-11-15T05:02:12;12.70;95.50
4354;DHT22;11018;51.258;6.806;2022-11-15T05:04:38;12.60;97.50
4354;DHT22;11018;51.258;6.806;2022-11-15T05:07:03;12.60;97.70
4354;DHT22;11018;51.258;6.806;2022-11-15T05:09:32;12.60;99.30
4354;DHT22;11018;51.258;6.806;2022-11-15T05:11:57;12.70;98.10
4354;DHT22;11018;51.258;6.806;2022-11-15T05:14:23;12.60;98.70
4354;DHT22;11018;51.258;6.806;2022-11-15T05:16:48;12.60;99.40
4354;DHT22;11018;51.258;6.806;2022-11-15T05:19:14;12.60;99.30
4354;DHT22;11018;51.258;6.806;2022-11-15T05:21:40;12.60;99.00
4354;DHT22;11018;51.258;6.806;2022-11-15T05:24:06;12.60;98.60
4354;DHT22;11018;51.258;6.806;2022-11-15T05:26:32;12.60;98.70
4354;DHT22;11018;51.258;6.806;2022-11-15T05:28:59;12.60;97.80
4354;DHT22;11018;51.258;6.806;2022-11-15T05:31:25;12.60;98.40
4354;DHT22;11018;51.258;6.806;2022-11-15T05:33:52;12.60;98.40
4354;DHT22;11018;51.258;6.806;2022-11-15T05:36:41;12.60;97.50
4354;DHT22;11018;51.258;6.806;2022-11-15T05:39:08;12.60;96.40
4354;DHT22;11018;51.258;6.806;2022-11-15T05:41:39;12.60;97.30
4354;DHT22;11018;51.258;6.806;2022-11-15T05:44:08;12.60;96.60
4354;DHT22;11018;51.258;6.806;2022-11-15T05:46:37;12.70;95.40
4354;DHT22;11018;51.258;6.806;2022-11-15T05:49:07;12.70;94.00
4354;DHT22;11018;51.258;6.806;2022-11-15T05:51:35;12.80;93.00
4354;DHT22;11018;51.258;6.806;2022-11-15T05:54:01;12.70;93.30
4354;DHT22;11018;51.258;6.806;2022-11-15T05:56:26;12.70;94.50
4354;DHT22;11018;51.258;6.806;2022-11-15T05:58:55;12.70;96.00
4354;DHT22;11018;51.258;6.806;2022-11-15T06:01:22;12.60;96.60
4354;DHT22;11018;51.258;6.806;2022-11-15T06:03:48;12.60;96.20
4354;DHT22;11018;51.258;6.806;2022-11-15T06:06:13;12.60;96.70
4354;DHT22;11018;51.258;6.806;2022-11-15T06:08:39;12.60;96.50
4354;DHT22;11018;51.258;6.806;2022-11-15T06:11:06;12.60;97.00
4354;DHT22;11018;51.258;6.806;2022-11-15T06:13:32;12.60;97.70
4354;DHT22;11018;51.258;6.806;2022-11-15T06:15:58;12.70;96.50
4354;DHT22;11018;51.258;6.806;2022-11-15T06:18:23;12.80;95.40
4354;DHT22;11018;51.258;6.806;2022-11-15T06:20:49;12.80;95.00
4354;DHT22;11018;51.258;6.806;2022-11-15T06:23:15;12.70;97.60
4354;DHT22;11018;51.258;6.806;2022-11-15T06:25:40;12.70;98.50
4354;DHT22;11018;51.258;6.806;2022-11-15T06:28:06;12.70;99.50
4354;DHT22;11018;51.258;6.806;2022-11-15T06:30:31;12.60;99.90
4354;DHT22;11018;51.258;6.806;2022-11-15T06:33:02;12.60;99.90
4354;DHT22;11018;51.258;6.806;2022-11-15T06:35:28;12.60;99.90
4354;DHT22;11018;51.258;6.806;2022-11-15T06:37:54;12.60;99.90
4354;DHT22;11018;51.258;6.806;2022-11-15T06:40:20;12.50;99.90
4354;DHT22;11018;51.258;6.806;2022-11-15T06:42:45;12.60;99.90
4354;DHT22;11018;51.258;6.806;2022-11-15T06:45:11;12.60;98.40
4354;DHT22;11018;51.258;6.806;2022-11-15T06:47:44;12.70;96.80
4354;DHT22;11018;51.258;6.806;2022-11-15T06:50:10;12.70;95.40
4354;DHT22;11018;51.258;6.806;2022-11-15T06:52:36;12.70;94.50
4354;DHT22;11018;51.258;6.806;2022-11-15T06:55:02;12.70;94.90
4354;DHT22;11018;51.258;6.806;2022-11-15T06:57:27;12.70;95.40
4354;DHT22;11018;51.258;6.806;2022-11-15T06:59:53;12.70;95.70
4354;DHT22;11018;51.258;6.806;2022-11-15T07:02:18;12.70;95.40
4354;DHT22;11018;51.258;6.806;2022-11-15T07:04:44;12.70;93.90
4354;DHT22;11018;51.258;6.806;2022-11-15T07:07:10;12.80;93.00
4354;DHT22;11018;51.258;6.806;2022-11-15T07:09:35;12.80;91.40
4354;DHT22;11018;51.258;6.806;2022-11-15T07:12:01;12.80;89.80
4354;DHT22;11018;51.258;6.806;2022-11-15T07:14:26;12.90;87.60
4354;DHT22;11018;51.258;6.806;2022-11-15T07:16:52;12.90;87.50
4354;DHT22;11018;51.258;6.806;2022-11-15T07:19:17;12.90;87.60
4354;DHT22;11018;51.258;6.806;2022-11-15T07:21:43;12.80;86.60
4354;DHT22;11018;51.258;6.806;2022-11-15T07:24:08;12.90;86.40
4354;DHT22;11018;51.258;6.806;2022-11-15T07:26:34;12.80;86.40
4354;DHT22;11018;51.258;6.806;2022-11-15T07:28:59;12.90;83.80
4354;DHT22;11018;51.258;6.806;2022-11-15T07:31:25;12.90;82.60
4354;DHT22;11018;51.258;6.806;2022-11-15T07:33:51;12.80;82.90
4354;DHT22;11018;51.258;6.806;2022-11-15T07:36:16;12.90;79.80
4354;DHT22;11018;51.258;6.806;2022-11-15T07:38:42;13.00;78.80
4354;DHT22;11018;51.258;6.806;2022-11-15T07:41:07;13.00;76.80
4354;DHT22;11018;51.258;6.806;2022-11-15T07:43:33;13.10;73.90
4354;DHT22;11018;51.258;6.806;2022-11-15T07:46:07;13.10;74.20
4354;DHT22;11018;51.258;6.806;2022-11-15T07:48:35;13.10;75.10
4354;DHT22;11018;51.258;6.806;2022-11-15T07:51:01;13.10;73.10
4354;DHT22;11018;51.258;6.806;2022-11-15T07:53:26;13.20;70.40
4354;DHT22;11018;51.258;6.806;2022-11-15T07:55:52;13.20;70.50
4354;DHT22;11018;51.258;6.806;2022-11-15T07:58:19;13.10;70.90
4354;DHT22;11018;51.258;6.806;2022-11-15T08:00:44;13.20;69.70
4354;DHT22;11018;51.258;6.806;2022-11-15T08:03:15;13.20;70.30
4354;DHT22;11018;51.258;6.806;2022-11-15T08:05:41;13.10;69.30
4354;DHT22;11018;51.258;6.806;2022-11-15T08:08:08;13.10;70.80
4354;DHT22;11018;51.258;6.806;2022-11-15T08:10:35;13.10;69.60
4354;DHT22;11018;51.258;6.806;2022-11-15T08:13:04;13.10;70.80
4354;DHT22;11018;51.258;6.806;2022-11-15T08:15:31;13.20;70.80
4354;DHT22;11018;51.258;6.806;2022-11-15T08:17:58;13.20;71.00
4354;DHT22;11018;51.258;6.806;2022-11-15T08:20:25;13.20;69.40
4354;DHT22;11018;51.258;6.806;2022-11-15T08:22:50;13.40;67.60
4354;DHT22;11018;51.258;6.806;2022-11-15T08:25:16;13.50;65.80
4354;DHT22;11018;51.258;6.806;2022-11-15T08:27:42;13.50;65.00
4354;DHT22;11018;51.258;6.806;2022-11-15T08:30:08;13.50;64.60
4354;DHT22;11018;51.258;6.806;2022-11-15T08:32:33;13.50;64.40
4354;DHT22;11018;51.258;6.806;2022-11-15T08:34:59;13.50;64.10
4354;DHT22;11018;51.258;6.806;2022-11-15T08:37:24;13.40;65.10
4354;DHT22;11018;51.258;6.806;2022-11-15T08:39:50;13.40;65.90
4354;DHT22;11018;51.258;6.806;2022-11-15T08:42:15;13.60;64.20
4354;DHT22;11018;51.258;6.806;2022-11-15T08:44:41;13.80;61.70
4354;DHT22;11018;51.258;6.806;2022-11-15T08:47:08;14.00;58.40
4354;DHT22;11018;51.258;6.806;2022-11-15T08:49:35;14.20;55.90
4354;DHT22;11018;51.258;6.806;2022-11-15T08:52:01;14.40;53.10
4354;DHT22;11018;51.258;6.806;2022-11-15T08:54:27;14.40;51.80
4354;DHT22;11018;51.258;6.806;2022-11-15T08:56:52;14.20;52.40
4354;DHT22;11018;51.258;6.806;2022-11-15T08:59:18;14.10;51.70
4354;DHT22;11018;51.258;6.806;2022-11-15T09:01:43;14.00;52.80
4354;DHT22;11018;51.258;6.806;2022-11-15T09:04:09;13.80;52.20
4354;DHT22;11018;51.258;6.806;2022-11-15T09:06:34;13.70;52.70
4354;DHT22;11018;51.258;6.806;2022-11-15T09:09:01;13.50;53.60
4354;DHT22;11018;51.258;6.806;2022-11-15T09:11:26;13.60;52.10
4354;DHT22;11018;51.258;6.806;2022-11-15T09:13:52;13.50;52.40
4354;DHT22;11018;51.258;6.806;2022-11-15T09:16:18;13.80;50.50
4354;DHT22;11018;51.258;6.806;2022-11-15T09:18:43;13.90;51.20
4354;DHT22;11018;51.258;6.806;2022-11-15T09:21:09;13.90;49.30
4354;DHT22;11018;51.258;6.806;2022-11-15T09:23:35;13.80;49.00
4354;DHT22;11018;51.258;6.806;2022-11-15T09:26:02;13.90;46.00
4354;DHT22;11018;51.258;6.806;2022-11-15T09:28:28;13.90;47.60
4354;DHT22;11018;51.258;6.806;2022-11-15T09:31:03;13.80;47.60
4354;DHT22;11018;51.258;6.806;2022-11-15T09:33:29;13.80;47.30
4354;DHT22;11018;51.258;6.806;2022-11-15T09:36:00;13.80;46.10
4354;DHT22;11018;51.258;6.806;2022-11-15T09:38:26;13.80;46.50
4354;DHT22;11018;51.258;6.806;2022-11-15T09:44:02;13.80;46.70
4354;DHT22;11018;51.258;6.806;2022-11-15T09:49:25;14.00;46.80
4354;DHT22;11018;51.258;6.806;2022-11-15T09:51:53;13.90;45.50
4354;DHT22;11018;51.258;6.806;2022-11-15T09:54:34;13.80;45.20
4354;DHT22;11018;51.258;6.806;2022-11-15T09:57:15;13.80;44.50
4354;DHT22;11018;51.258;6.806;2022-11-15T10:05:59;13.80;41.00
4354;DHT22;11018;51.258;6.806;2022-11-15T10:10:57;13.90;39.00
4354;DHT22;11018;51.258;6.806;2022-11-15T10:13:26;13.90;39.60
4354;DHT22;11018;51.258;6.806;2022-11-15T10:15:53;13.80;39.00
4354;DHT22;11018;51.258;6.806;2022-11-15T10:21:02;13.80;39.90
4354;DHT22;11018;51.258;6.806;2022-11-15T10:23:36;13.80;41.40
4354;DHT22;11018;51.258;6.806;2022-11-15T10:26:04;13.80;42.20
4354;DHT22;11018;51.258;6.806;2022-11-15T10:28:33;13.90;41.70
4354;DHT22;11018;51.258;6.806;2022-11-15T10:31:00;14.00;39.30
4354;DHT22;11018;51.258;6.806;2022-11-15T10:36:14;13.90;38.10
4354;DHT22;11018;51.258;6.806;2022-11-15T10:44:12;14.10;36.30
4354;DHT22;11018;51.258;6.806;2022-11-15T10:46:41;14.10;35.70
4354;DHT22;11018;51.258;6.806;2022-11-15T10:49:24;14.10;36.20
4354;DHT22;11018;51.258;6.806;2022-11-15T10:56:56;13.90;36.60
4354;DHT22;11018;51.258;6.806;2022-11-15T10:59:31;13.90;36.30
4354;DHT22;11018;51.258;6.806;2022-11-15T11:01:57;13.90;35.50
4354;DHT22;11018;51.258;6.806;2022-11-15T11:04:23;13.90;35.60
4354;DHT22;11018;51.258;6.806;2022-11-15T11:06:57;13.90;34.00
4354;DHT22;11018;51.258;6.806;2022-11-15T11:09:36;14.10;34.60
4354;DHT22;11018;51.258;6.806;2022-11-15T11:12:09;14.10;33.70
4354;DHT22;11018;51.258;6.806;2022-11-15T11:14:37;14.10;33.10
4354;DHT22;11018;51.258;6.806;2022-11-15T11:17:11;14.10;32.90
4354;DHT22;11018;51.258;6.806;2022-11-15T11:25:36;14.20;30.90
4354;DHT22;11018;51.258;6.806;2022-11-15T11:28:31;14.30;31.50
4354;DHT22;11018;51.258;6.806;2022-11-15T11:31:10;14.30;30.80
4354;DHT22;11018;51.258;6.806;2022-11-15T11:33:57;14.50;30.20
4354;DHT22;11018;51.258;6.806;2022-11-15T11:39:30;14.50;26.60
4354;DHT22;11018;51.258;6.806;2022-11-15T11:42:35;14.70;25.80
4354;DHT22;11018;51.258;6.806;2022-11-15T11:48:04;14.70;25.60
4354;DHT22;11018;51.258;6.806;2022-11-15T11:50:36;14.60;23.90
4354;DHT22;11018;51.258;6.806;2022-11-15T11:53:11;14.70;24.40
4354;DHT22;11018;51.258;6.806;2022-11-15T11:55:42;14.70;24.70
4354;DHT22;11018;51.258;6.806;2022-11-15T12:00:56;14.70;23.60
4354;DHT22;11018;51.258;6.806;2022-11-15T12:03:43;14.60;23.60
4354;DHT22;11018;51.258;6.806;2022-11-15T12:11:43;14.60;22.80
4354;DHT22;11018;51.258;6.806;2022-11-15T12:14:23;14.60;23.90
4354;DHT22;11018;51.258;6.806;2022-11-15T12:16:50;14.60;23.30
4354;DHT22;11018;51.258;6.806;2022-11-15T12:19:15;14.60;23.10
4354;DHT22;11018;51.258;6.806;2022-11-15T12:21:56;14.60;23.70
4354;DHT22;11018;51.258;6.806;2022-11-15T12:24:34;14.60;23.90
4354;DHT22;11018;51.258;6.806;2022-11-15T12:27:20;14.50;24.40
4354;DHT22;11018;51.258;6.806;2022-11-15T12:29:50;14.60;24.40
4354;DHT22;11018;51.258;6.806;2022-11-15T12:32:30;14.50;24.70
4354;DHT22;11018;51.258;6.806;2022-11-15T12:34:59;14.60;24.80
4354;DHT22;11018;51.258;6.806;2022-11-15T12:51:08;14.80;26.50
4354;DHT22;11018;51.258;6.806;2022-11-15T12:53:34;14.90;26.40
4354;DHT22;11018;51.258;6.806;2022-11-15T12:59:01;15.10;26.20
4354;DHT22;11018;51.258;6.806;2022-11-15T13:06:53;15.20;26.80
4354;DHT22;11018;51.258;6.806;2022-11-15T13:11:58;15.30;26.80
4354;DHT22;11018;51.258;6.806;2022-11-15T13:19:46;15.30;25.80
4354;DHT22;11018;51.258;6.806;2022-11-15T13:22:12;15.20;26.20
4354;DHT22;11018;51.258;6.806;2022-11-15T13:24:56;15.30;26.80
4354;DHT22;11018;51.258;6.806;2022-11-15T13:27:22;15.30;26.80
4354;DHT22;11018;51.258;6.806;2022-11-15T13:29:48;15.40;26.20
4354;DHT22;11018;51.258;6.806;2022-11-15T13:32:15;15.50;25.90
4354;DHT22;11018;51.258;6.806;2022-11-15T13:34:49;15.50;25.30
4354;DHT22;11018;51.258;6.806;2022-11-15T13:39:49;15.60;26.20
4354;DHT22;11018;51.258;6.806;2022-11-15T13:42:19;15.60;26.40
4354;DHT22;11018;51.258;6.806;2022-11-15T13:44:59;15.70;26.70
4354;DHT22;11018;51.258;6.806;2022-11-15T13:47:26;15.90;26.20
4354;DHT22;11018;51.258;6.806;2022-11-15T13:49:53;16.00;25.80
4354;DHT22;11018;51.258;6.806;2022-11-15T13:52:19;16.00;25.20
4354;DHT22;11018;51.258;6.806;2022-11-15T13:57:15;16.00;25.60
4354;DHT22;11018;51.258;6.806;2022-11-15T13:59:51;15.90;25.70
4354;DHT22;11018;51.258;6.806;2022-11-15T14:02:30;15.70;26.00
4354;DHT22;11018;51.258;6.806;2022-11-15T14:05:14;15.60;26.50
4354;DHT22;11018;51.258;6.806;2022-11-15T14:08:03;15.50;27.10
4354;DHT22;11018;51.258;6.806;2022-11-15T14:12:54;15.40;28.30
4354;DHT22;11018;51.258;6.806;2022-11-15T14:15:34;15.40;29.10
4354;DHT22;11018;51.258;6.806;2022-11-15T14:18:00;15.40;29.10
4354;DHT22;11018;51.258;6.806;2022-11-15T14:20:27;15.40;29.70
4354;DHT22;11018;51.258;6.806;2022-11-15T14:22:58;15.40;29.50
4354;DHT22;11018;51.258;6.806;2022-11-15T14:25:28;15.40;30.10
4354;DHT22;11018;51.258;6.806;2022-11-15T14:30:39;15.30;30.70
4354;DHT22;11018;51.258;6.806;2022-11-15T14:33:20;15.30;31.10
4354;DHT22;11018;51.258;6.806;2022-11-15T14:35:46;15.10;32.20
4354;DHT22;11018;51.258;6.806;2022-11-15T14:38:12;15.00;32.90
4354;DHT22;11018;51.258;6.806;2022-11-15T14:40:37;15.00;32.90
4354;DHT22;11018;51.258;6.806;2022-11-15T14:43:03;14.90;33.20
4354;DHT22;11018;51.258;6.806;2022-11-15T14:45:29;14.90;33.70
4354;DHT22;11018;51.258;6.806;2022-11-15T14:47:54;14.80;34.50
4354;DHT22;11018;51.258;6.806;2022-11-15T14:50:21;14.80;34.70
4354;DHT22;11018;51.258;6.806;2022-11-15T14:52:47;14.80;35.20
4354;DHT22;11018;51.258;6.806;2022-11-15T14:57:48;14.70;35.20
4354;DHT22;11018;51.258;6.806;2022-11-15T15:00:14;14.80;35.10
4354;DHT22;11018;51.258;6.806;2022-11-15T15:02:42;14.80;34.90
4354;DHT22;11018;51.258;6.806;2022-11-15T15:05:17;14.70;35.60
4354;DHT22;11018;51.258;6.806;2022-11-15T15:07:43;14.60;36.20
4354;DHT22;11018;51.258;6.806;2022-11-15T15:10:09;14.60;36.30
4354;DHT22;11018;51.258;6.806;2022-11-15T15:12:35;14.60;35.90
4354;DHT22;11018;51.258;6.806;2022-11-15T15:15:00;14.60;36.20
4354;DHT22;11018;51.258;6.806;2022-11-15T15:17:26;14.60;36.10
4354;DHT22;11018;51.258;6.806;2022-11-15T15:19:52;14.60;36.70
4354;DHT22;11018;51.258;6.806;2022-11-15T15:22:18;14.60;36.40
4354;DHT22;11018;51.258;6.806;2022-11-15T15:24:45;14.50;36.90
4354;DHT22;11018;51.258;6.806;2022-11-15T15:27:12;14.40;37.80
4354;DHT22;11018;51.258;6.806;2022-11-15T15:29:37;14.40;38.00
4354;DHT22;11018;51.258;6.806;2022-11-15T15:32:03;14.30;38.20
4354;DHT22;11018;51.258;6.806;2022-11-15T15:34:29;14.30;38.70
4354;DHT22;11018;51.258;6.806;2022-11-15T15:39:34;14.30;38.60
4354;DHT22;11018;51.258;6.806;2022-11-15T15:41:59;14.20;39.00
4354;DHT22;11018;51.258;6.806;2022-11-15T15:44:25;14.20;38.90
4354;DHT22;11018;51.258;6.806;2022-11-15T15:46:50;14.10;39.60
4354;DHT22;11018;51.258;6.806;2022-11-15T15:49:16;14.10;40.00
4354;DHT22;11018;51.258;6.806;2022-11-15T15:51:42;14.00;40.60
4354;DHT22;11018;51.258;6.806;2022-11-15T15:54:09;13.90;41.40
4354;DHT22;11018;51.258;6.806;2022-11-15T15:56:34;13.80;42.80
4354;DHT22;11018;51.258;6.806;2022-11-15T15:59:00;13.90;41.50
4354;DHT22;11018;51.258;6.806;2022-11-15T16:01:25;13.90;41.40
4354;DHT22;11018;51.258;6.806;2022-11-15T16:03:51;13.80;42.10
4354;DHT22;11018;51.258;6.806;2022-11-15T16:06:43;13.80;42.80
4354;DHT22;11018;51.258;6.806;2022-11-15T16:09:14;13.80;43.60
4354;DHT22;11018;51.258;6.806;2022-11-15T16:11:41;14.00;41.40
4354;DHT22;11018;51.258;6.806;2022-11-15T16:14:07;14.00;41.70
4354;DHT22;11018;51.258;6.806;2022-11-15T16:16:34;14.00;41.40
4354;DHT22;11018;51.258;6.806;2022-11-15T16:18:59;13.90;42.00
4354;DHT22;11018;51.258;6.806;2022-11-15T16:21:26;13.90;42.30
4354;DHT22;11018;51.258;6.806;2022-11-15T16:23:52;13.80;42.70
4354;DHT22;11018;51.258;6.806;2022-11-15T16:26:21;13.80;42.80
4354;DHT22;11018;51.258;6.806;2022-11-15T16:28:47;13.80;43.00
4354;DHT22;11018;51.258;6.806;2022-11-15T16:31:12;13.80;43.90
4354;DHT22;11018;51.258;6.806;2022-11-15T16:33:39;13.80;43.00
4354;DHT22;11018;51.258;6.806;2022-11-15T16:36:06;13.90;42.80
4354;DHT22;11018;51.258;6.806;2022-11-15T16:38:37;13.90;42.20
4354;DHT22;11018;51.258;6.806;2022-11-15T16:41:04;13.90;43.00
4354;DHT22;11018;51.258;6.806;2022-11-15T16:43:29;14.00;42.60
4354;DHT22;11018;51.258;6.806;2022-11-15T16:45:55;13.90;42.30
4354;DHT22;11018;51.258;6.806;2022-11-15T16:48:22;13.90;43.10
4354;DHT22;11018;51.258;6.806;2022-11-15T16:50:48;13.80;43.50
4354;DHT22;11018;51.258;6.806;2022-11-15T16:53:13;13.80;43.40
4354;DHT22;11018;51.258;6.806;2022-11-15T16:55:39;13.90;43.90
4354;DHT22;11018;51.258;6.806;2022-11-15T16:58:04;13.90;43.00
4354;DHT22;11018;51.258;6.806;2022-11-15T17:00:30;14.00;43.40
4354;DHT22;11018;51.258;6.806;2022-11-15T17:02:56;13.90;43.60
4354;DHT22;11018;51.258;6.806;2022-11-15T17:05:23;14.00;44.20
4354;DHT22;11018;51.258;6.806;2022-11-15T17:07:50;14.00;43.50
4354;DHT22;11018;51.258;6.806;2022-11-15T17:10:23;13.90;43.90
4354;DHT22;11018;51.258;6.806;2022-11-15T17:12:50;13.90;44.50
4354;DHT22;11018;51.258;6.806;2022-11-15T17:15:16;14.00;44.00
4354;DHT22;11018;51.258;6.806;2022-11-15T17:17:42;14.00;43.70
4354;DHT22;11018;51.258;6.806;2022-11-15T17:20:16;14.00;43.80
4354;DHT22;11018;51.258;6.806;2022-11-15T17:22:42;14.00;43.50
4354;DHT22;11018;51.258;6.806;2022-11-15T17:25:07;14.00;44.60
4354;DHT22;11018;51.258;6.806;2022-11-15T17:27:34;14.00;44.20
4354;DHT22;11018;51.258;6.806;2022-11-15T17:29:59;13.90;44.90
4354;DHT22;11018;51.258;6.806;2022-11-15T17:32:25;13.90;45.20
4354;DHT22;11018;51.258;6.806;2022-11-15T17:34:50;13.90;46.10
4354;DHT22;11018;51.258;6.806;2022-11-15T17:37:16;13.90;45.00
4354;DHT22;11018;51.258;6.806;2022-11-15T17:39:41;13.90;44.20
4354;DHT22;11018;51.258;6.806;2022-11-15T17:42:07;13.90;44.70
4354;DHT22;11018;51.258;6.806;2022-11-15T17:44:32;13.90;44.70
4354;DHT22;11018;51.258;6.806;2022-11-15T17:46:58;13.90;44.70
4354;DHT22;11018;51.258;6.806;2022-11-15T17:49:24;14.00;44.00
4354;DHT22;11018;51.258;6.806;2022-11-15T17:51:49;14.10;44.10
4354;DHT22;11018;51.258;6.806;2022-11-15T17:54:15;14.10;43.70
4354;DHT22;11018;51.258;6.806;2022-11-15T17:56:41;14.10;44.70
4354;DHT22;11018;51.258;6.806;2022-11-15T17:59:07;14.10;44.40